Airfield :
LOGIN :

Register | Disclaimer

   EN    FR    IT 

 










Legend :    VFR   Marginal VFR   IFR   Intensive IFR   Very Intensive IFR
Visi :
Ceiling :
>= 8 km
>= 3000ft
5 to 8 km
1000 to 3000 ft
1500m to 5 km
500 to 1000 ft
800 to 1500m
200 to 500 ft
< 800m
< 200 ft
Symbols :   Thunderstorms  Fog  Heavy snow  Heavy precipitations  Wind > 20 kt
SIGMETs :     Misc.  Thunderstorms  Icing  Turbulence  Mountain Waves  Volcanic Ashes






- Airport Elevation : 28 ft
- IATA code : HFA


LLHA - Haifa International

CURRENT METAR :
  • 091750Z 30005KT 9999 FEW025 27/21 Q1007

EXPIRED METARs :
  • 091650Z 30005KT 9999 FEW020 27/20 Q1006
  • 091550Z 32007KT 9999 FEW025 28/21 Q1007

TAF TAF LLHA
Valid from the 09 at 18:00 until the 10 at 18:00 UTC


091707Z 0918/1018 33005KT 9999 FEW020
BECMG 0920/0922 VRB03KT SCT020
PROB40 0923/1005 13005KT BKN017
BECMG 1007/1009 31010KT FEW025 TX30/1010Z TN24/1002Z
LLLL FIR / Asia



MET'MAP, your aeronautical weather chart ! - Copyright ORBIFLY December 2007 - Disclaimer

ORBIFLY MET'MAP TEAM :

Programming & Development : Alexandra Zaïnal
Concept & original design : Baudouin d'Aumeries
Assistance for programming : Marc-Olivier Méhu
Technical & hardware support : Manuel Goepfert

Contact : metmap@orbifly.com




SOURCES & CREDITS :

   NOAA